aviador You're here:

LEVC Decoded Metar

VALENCIA in SPAIN
Report Time2016-08-28 13:30:00
UTC Time2016-08-28 13:58:28
Flight Rules vfr VFR
Wind110° at 08 kt
W.Decomp.*RWY 12: 7.9 kt HW 1.3 kt LCW
W.Rank110° ranks 16
Current wind is above 110° avg. (7.3)
Visibility9999 m
Phenomena:N/A
Clouds:Few TCU 030 Hf
Expected CloudBase > 4,000 ft AGL from Temp-Dew spread
CeilingNone
Temp31°C (ISA +16)
Dew Point21°C (55% RH)
Heat Index33.7°C
QNH1017 hPa
Density Alt2,274 ft
Elevation203 ft
Report Wrong Elevation
Raw Report
LEVC 281330Z 11008KT 070V150 9999 FEW030TCU 31/21 Q1017 NOSIG=

Extra information for LEVC:More info

Metar Taf Metar & Taf Last 4 Metars F.Rules Stats Wind Profile Meteogram Temp Stats Airport Information Weather charts Add Link Nearby VenuesMetar ALERT Operation Metar Decoded Social comments

Webcam Valencia